Terminal Aerodrome Forecast
Issued by NWS

Home | Current Version | Previous Version | Text Only | Print | Product List | Glossary On
Versions: 1 2 3 4 5 6 7 8 9 10 11 12 13 14 15 16 17 18 19 20 21 22 23
000
FTUS44 KBMX 311344 AAA
TAFANB
TAF AMD
KANB 311344Z 3114/0112 07004KT 6SM BR OVC007
     FM311600 07004KT 6SM BR OVC015
     FM311800 06004KT P6SM OVC025
     FM312200 05004KT P6SM BKN050
     FM010200 00000KT P6SM SCT250=

USA.gov is the U.S. government's official web portal to all federal, state and local government web resources and services.